Pineville, Kentucky
Current Conditions -  °F | °C
As of 3:35 PM on Saturday 25 Oct 2014 (Local Time) from K1A6 Reporting Station
Overcast Overcast  
Wind Chill: 68°   Ceiling: 3400
Heat Index: 68°   Visibility: 10mi
Dew Point: 49°   Wind: 0mph
Humidity: 50%   Direction: NA
Pressure: 30.02"   Gusts: NA
Location:  36.76°N, 83.69°W
Report Text: K1A6 251935Z AUTO 00000KT 10SM BKN034 OVC040 20/09 A3002 RMK AO2 T02000094
Loading
Personal Weather Stations






























Interactive Weather Map
Tropical Storm Tracking
New forecast layout! Learn more

10-Day Weather Forecast

Advertisements
Track Severe Weather on mobile